sensor_id;sensor_type;location;lat;lon;timestamp;P1;durP1;ratioP1;P2;durP2;ratioP2
32874;SDS011;40468;42.128;24.750;2023-07-16T00:00:49;4.40;;;2.42;;
32874;SDS011;40468;42.128;24.750;2023-07-16T00:02:20;4.30;;;3.00;;
32874;SDS011;40468;42.128;24.750;2023-07-16T00:03:52;5.82;;;3.17;;
32874;SDS011;40468;42.128;24.750;2023-07-16T00:05:23;5.22;;;2.80;;
32874;SDS011;40468;42.128;24.750;2023-07-16T00:06:55;6.28;;;2.72;;
32874;SDS011;40468;42.128;24.750;2023-07-16T00:08:28;7.03;;;3.40;;
32874;SDS011;40468;42.128;24.750;2023-07-16T00:09:59;9.40;;;2.67;;
32874;SDS011;40468;42.128;24.750;2023-07-16T00:11:32;4.82;;;2.33;;
32874;SDS011;40468;42.128;24.750;2023-07-16T00:13:03;7.18;;;2.65;;
32874;SDS011;40468;42.128;24.750;2023-07-16T00:14:35;4.20;;;2.42;;
32874;SDS011;40468;42.128;24.750;2023-07-16T00:16:06;6.25;;;2.75;;
32874;SDS011;40468;42.128;24.750;2023-07-16T00:17:38;6.00;;;3.00;;
32874;SDS011;40468;42.128;24.750;2023-07-16T00:19:09;3.38;;;2.63;;
32874;SDS011;40468;42.128;24.750;2023-07-16T00:20:41;4.22;;;2.22;;
32874;SDS011;40468;42.128;24.750;2023-07-16T00:22:12;5.35;;;2.55;;
32874;SDS011;40468;42.128;24.750;2023-07-16T00:23:45;7.68;;;2.47;;
32874;SDS011;40468;42.128;24.750;2023-07-16T00:25:16;4.65;;;2.67;;
32874;SDS011;40468;42.128;24.750;2023-07-16T00:26:48;5.18;;;2.90;;
32874;SDS011;40468;42.128;24.750;2023-07-16T00:28:19;3.55;;;2.60;;
32874;SDS011;40468;42.128;24.750;2023-07-16T00:29:51;3.25;;;2.40;;
32874;SDS011;40468;42.128;24.750;2023-07-16T00:31:22;4.93;;;3.00;;
32874;SDS011;40468;42.128;24.750;2023-07-16T00:32:54;9.70;;;3.00;;
32874;SDS011;40468;42.128;24.750;2023-07-16T00:34:25;7.75;;;2.85;;
32874;SDS011;40468;42.128;24.750;2023-07-16T00:35:57;3.38;;;2.50;;
32874;SDS011;40468;42.128;24.750;2023-07-16T00:37:28;5.10;;;2.40;;
32874;SDS011;40468;42.128;24.750;2023-07-16T00:39:02;9.85;;;3.50;;
32874;SDS011;40468;42.128;24.750;2023-07-16T00:40:32;5.97;;;2.80;;
32874;SDS011;40468;42.128;24.750;2023-07-16T00:42:04;4.00;;;2.67;;
32874;SDS011;40468;42.128;24.750;2023-07-16T00:43:35;7.32;;;2.83;;
32874;SDS011;40468;42.128;24.750;2023-07-16T00:45:09;4.03;;;2.70;;
32874;SDS011;40468;42.128;24.750;2023-07-16T00:46:42;3.75;;;2.83;;
32874;SDS011;40468;42.128;24.750;2023-07-16T00:48:14;4.05;;;2.63;;
32874;SDS011;40468;42.128;24.750;2023-07-16T00:49:45;4.25;;;2.70;;
32874;SDS011;40468;42.128;24.750;2023-07-16T00:51:17;7.82;;;2.70;;
32874;SDS011;40468;42.128;24.750;2023-07-16T00:52:49;5.60;;;2.80;;
32874;SDS011;40468;42.128;24.750;2023-07-16T00:54:22;9.77;;;3.15;;
32874;SDS011;40468;42.128;24.750;2023-07-16T00:55:53;5.13;;;3.00;;
32874;SDS011;40468;42.128;24.750;2023-07-16T00:57:25;3.85;;;2.92;;
32874;SDS011;40468;42.128;24.750;2023-07-16T00:58:56;3.63;;;2.58;;
32874;SDS011;40468;42.128;24.750;2023-07-16T01:00:28;6.25;;;3.28;;
32874;SDS011;40468;42.128;24.750;2023-07-16T01:01:59;7.72;;;3.45;;
32874;SDS011;40468;42.128;24.750;2023-07-16T01:03:31;6.90;;;2.88;;
32874;SDS011;40468;42.128;24.750;2023-07-16T01:05:02;4.80;;;2.92;;
32874;SDS011;40468;42.128;24.750;2023-07-16T01:06:35;5.22;;;2.78;;
32874;SDS011;40468;42.128;24.750;2023-07-16T01:08:10;9.10;;;3.42;;
32874;SDS011;40468;42.128;24.750;2023-07-16T01:09:44;3.65;;;2.72;;
32874;SDS011;40468;42.128;24.750;2023-07-16T01:12:47;5.90;;;3.35;;
32874;SDS011;40468;42.128;24.750;2023-07-16T01:14:20;4.20;;;2.55;;
32874;SDS011;40468;42.128;24.750;2023-07-16T01:15:54;5.93;;;3.15;;
32874;SDS011;40468;42.128;24.750;2023-07-16T01:17:26;5.00;;;2.78;;
32874;SDS011;40468;42.128;24.750;2023-07-16T01:18:57;4.88;;;2.88;;
32874;SDS011;40468;42.128;24.750;2023-07-16T01:20:29;5.03;;;2.58;;
32874;SDS011;40468;42.128;24.750;2023-07-16T01:22:03;5.82;;;2.88;;
32874;SDS011;40468;42.128;24.750;2023-07-16T01:23:56;8.23;;;3.15;;
32874;SDS011;40468;42.128;24.750;2023-07-16T01:25:58;5.43;;;2.95;;
32874;SDS011;40468;42.128;24.750;2023-07-16T01:27:50;8.40;;;3.35;;
32874;SDS011;40468;42.128;24.750;2023-07-16T01:29:39;7.45;;;3.22;;
32874;SDS011;40468;42.128;24.750;2023-07-16T01:31:17;5.65;;;3.03;;
32874;SDS011;40468;42.128;24.750;2023-07-16T01:32:48;3.88;;;2.53;;
32874;SDS011;40468;42.128;24.750;2023-07-16T01:34:21;3.85;;;2.97;;
32874;SDS011;40468;42.128;24.750;2023-07-16T01:37:27;4.65;;;2.72;;
32874;SDS011;40468;42.128;24.750;2023-07-16T01:38:58;10.80;;;3.15;;
32874;SDS011;40468;42.128;24.750;2023-07-16T01:40:30;7.05;;;2.80;;
32874;SDS011;40468;42.128;24.750;2023-07-16T01:42:02;6.47;;;3.05;;
32874;SDS011;40468;42.128;24.750;2023-07-16T01:43:34;6.65;;;3.17;;
32874;SDS011;40468;42.128;24.750;2023-07-16T01:45:06;7.30;;;2.95;;
32874;SDS011;40468;42.128;24.750;2023-07-16T01:46:38;4.38;;;2.70;;
32874;SDS011;40468;42.128;24.750;2023-07-16T01:48:13;8.00;;;2.75;;
32874;SDS011;40468;42.128;24.750;2023-07-16T01:49:54;6.30;;;2.90;;
32874;SDS011;40468;42.128;24.750;2023-07-16T01:51:24;5.25;;;2.85;;
32874;SDS011;40468;42.128;24.750;2023-07-16T01:52:56;6.03;;;2.88;;
32874;SDS011;40468;42.128;24.750;2023-07-16T01:54:27;7.07;;;2.92;;
32874;SDS011;40468;42.128;24.750;2023-07-16T01:56:00;5.65;;;2.83;;
32874;SDS011;40468;42.128;24.750;2023-07-16T01:57:32;8.07;;;3.33;;
32874;SDS011;40468;42.128;24.750;2023-07-16T01:59:04;5.30;;;3.22;;
32874;SDS011;40468;42.128;24.750;2023-07-16T02:00:36;5.60;;;3.05;;
32874;SDS011;40468;42.128;24.750;2023-07-16T02:02:09;4.82;;;3.08;;
32874;SDS011;40468;42.128;24.750;2023-07-16T02:03:39;5.93;;;2.78;;
32874;SDS011;40468;42.128;24.750;2023-07-16T02:05:11;10.23;;;3.10;;
32874;SDS011;40468;42.128;24.750;2023-07-16T02:06:42;5.13;;;2.85;;
32874;SDS011;40468;42.128;24.750;2023-07-16T02:08:14;6.22;;;3.30;;
32874;SDS011;40468;42.128;24.750;2023-07-16T02:09:46;3.72;;;2.67;;
32874;SDS011;40468;42.128;24.750;2023-07-16T02:11:18;11.68;;;3.38;;
32874;SDS011;40468;42.128;24.750;2023-07-16T02:12:49;6.18;;;2.90;;
32874;SDS011;40468;42.128;24.750;2023-07-16T02:14:21;4.80;;;3.20;;
32874;SDS011;40468;42.128;24.750;2023-07-16T02:15:54;5.32;;;3.30;;
32874;SDS011;40468;42.128;24.750;2023-07-16T02:17:25;4.50;;;2.78;;
32874;SDS011;40468;42.128;24.750;2023-07-16T02:18:57;7.63;;;3.97;;
32874;SDS011;40468;42.128;24.750;2023-07-16T02:20:28;7.50;;;3.00;;
32874;SDS011;40468;42.128;24.750;2023-07-16T02:22:00;8.23;;;2.75;;
32874;SDS011;40468;42.128;24.750;2023-07-16T02:23:31;3.78;;;2.70;;
32874;SDS011;40468;42.128;24.750;2023-07-16T02:25:03;4.53;;;2.92;;
32874;SDS011;40468;42.128;24.750;2023-07-16T02:26:35;5.18;;;3.05;;
32874;SDS011;40468;42.128;24.750;2023-07-16T02:28:07;4.10;;;2.95;;
32874;SDS011;40468;42.128;24.750;2023-07-16T02:29:37;6.80;;;3.13;;
32874;SDS011;40468;42.128;24.750;2023-07-16T02:31:11;7.60;;;3.15;;
32874;SDS011;40468;42.128;24.750;2023-07-16T02:32:42;8.60;;;3.30;;
32874;SDS011;40468;42.128;24.750;2023-07-16T02:34:14;5.70;;;3.22;;
32874;SDS011;40468;42.128;24.750;2023-07-16T02:35:46;6.10;;;3.33;;
32874;SDS011;40468;42.128;24.750;2023-07-16T02:37:18;12.18;;;4.25;;
32874;SDS011;40468;42.128;24.750;2023-07-16T02:38:49;6.03;;;3.28;;
32874;SDS011;40468;42.128;24.750;2023-07-16T02:40:21;5.93;;;3.63;;
32874;SDS011;40468;42.128;24.750;2023-07-16T02:41:52;4.75;;;3.30;;
32874;SDS011;40468;42.128;24.750;2023-07-16T02:43:24;14.02;;;3.60;;
32874;SDS011;40468;42.128;24.750;2023-07-16T02:44:55;3.85;;;3.38;;
32874;SDS011;40468;42.128;24.750;2023-07-16T02:46:28;11.05;;;3.90;;
32874;SDS011;40468;42.128;24.750;2023-07-16T02:47:59;7.03;;;3.50;;
32874;SDS011;40468;42.128;24.750;2023-07-16T02:49:31;6.03;;;3.58;;
32874;SDS011;40468;42.128;24.750;2023-07-16T02:51:02;6.50;;;3.25;;
32874;SDS011;40468;42.128;24.750;2023-07-16T02:52:34;5.85;;;3.72;;
32874;SDS011;40468;42.128;24.750;2023-07-16T02:54:06;5.40;;;3.47;;
32874;SDS011;40468;42.128;24.750;2023-07-16T02:55:37;7.97;;;3.70;;
32874;SDS011;40468;42.128;24.750;2023-07-16T02:57:09;12.23;;;3.75;;
32874;SDS011;40468;42.128;24.750;2023-07-16T02:58:40;6.00;;;3.60;;
32874;SDS011;40468;42.128;24.750;2023-07-16T03:00:12;7.85;;;3.38;;
32874;SDS011;40468;42.128;24.750;2023-07-16T03:01:46;10.20;;;3.95;;
32874;SDS011;40468;42.128;24.750;2023-07-16T03:03:17;5.78;;;3.58;;
32874;SDS011;40468;42.128;24.750;2023-07-16T03:04:48;7.85;;;3.60;;
32874;SDS011;40468;42.128;24.750;2023-07-16T03:06:19;9.00;;;3.80;;
32874;SDS011;40468;42.128;24.750;2023-07-16T03:07:51;5.35;;;3.22;;
32874;SDS011;40468;42.128;24.750;2023-07-16T03:09:22;11.23;;;3.75;;
32874;SDS011;40468;42.128;24.750;2023-07-16T03:10:54;5.95;;;3.42;;
32874;SDS011;40468;42.128;24.750;2023-07-16T03:12:26;7.22;;;4.00;;
32874;SDS011;40468;42.128;24.750;2023-07-16T03:13:57;10.85;;;3.70;;
32874;SDS011;40468;42.128;24.750;2023-07-16T03:15:29;4.60;;;2.97;;
32874;SDS011;40468;42.128;24.750;2023-07-16T03:17:01;5.40;;;3.50;;
32874;SDS011;40468;42.128;24.750;2023-07-16T03:18:33;4.47;;;3.67;;
32874;SDS011;40468;42.128;24.750;2023-07-16T03:20:06;9.82;;;3.45;;
32874;SDS011;40468;42.128;24.750;2023-07-16T03:21:39;9.45;;;4.00;;
32874;SDS011;40468;42.128;24.750;2023-07-16T03:23:10;7.75;;;3.65;;
32874;SDS011;40468;42.128;24.750;2023-07-16T03:24:41;8.77;;;3.75;;
32874;SDS011;40468;42.128;24.750;2023-07-16T03:26:12;7.93;;;3.50;;
32874;SDS011;40468;42.128;24.750;2023-07-16T03:27:44;8.57;;;3.70;;
32874;SDS011;40468;42.128;24.750;2023-07-16T03:29:15;6.63;;;3.88;;
32874;SDS011;40468;42.128;24.750;2023-07-16T03:30:47;10.35;;;3.65;;
32874;SDS011;40468;42.128;24.750;2023-07-16T03:32:19;10.38;;;4.20;;
32874;SDS011;40468;42.128;24.750;2023-07-16T03:35:22;7.32;;;3.33;;
32874;SDS011;40468;42.128;24.750;2023-07-16T03:36:53;6.55;;;3.95;;
32874;SDS011;40468;42.128;24.750;2023-07-16T03:38:25;4.97;;;3.17;;
32874;SDS011;40468;42.128;24.750;2023-07-16T03:39:56;6.13;;;3.95;;
32874;SDS011;40468;42.128;24.750;2023-07-16T03:41:28;7.25;;;3.67;;
32874;SDS011;40468;42.128;24.750;2023-07-16T03:43:00;6.50;;;3.70;;
32874;SDS011;40468;42.128;24.750;2023-07-16T03:44:31;7.57;;;3.45;;
32874;SDS011;40468;42.128;24.750;2023-07-16T03:46:03;7.90;;;3.63;;
32874;SDS011;40468;42.128;24.750;2023-07-16T03:47:38;7.45;;;3.67;;
32874;SDS011;40468;42.128;24.750;2023-07-16T03:49:10;6.43;;;3.60;;
32874;SDS011;40468;42.128;24.750;2023-07-16T03:50:42;6.22;;;3.80;;
32874;SDS011;40468;42.128;24.750;2023-07-16T03:52:14;6.57;;;4.30;;
32874;SDS011;40468;42.128;24.750;2023-07-16T03:53:44;5.75;;;3.60;;
32874;SDS011;40468;42.128;24.750;2023-07-16T03:55:16;9.40;;;4.18;;
32874;SDS011;40468;42.128;24.750;2023-07-16T03:56:47;4.90;;;3.70;;
32874;SDS011;40468;42.128;24.750;2023-07-16T03:58:19;5.03;;;3.42;;
32874;SDS011;40468;42.128;24.750;2023-07-16T03:59:50;8.55;;;4.50;;
32874;SDS011;40468;42.128;24.750;2023-07-16T04:01:22;5.57;;;3.80;;
32874;SDS011;40468;42.128;24.750;2023-07-16T04:02:54;5.50;;;4.07;;
32874;SDS011;40468;42.128;24.750;2023-07-16T04:06:01;12.55;;;4.50;;
32874;SDS011;40468;42.128;24.750;2023-07-16T04:07:33;8.75;;;4.63;;
32874;SDS011;40468;42.128;24.750;2023-07-16T04:09:04;7.97;;;4.43;;
32874;SDS011;40468;42.128;24.750;2023-07-16T04:10:35;5.70;;;3.90;;
32874;SDS011;40468;42.128;24.750;2023-07-16T04:12:07;9.82;;;5.10;;
32874;SDS011;40468;42.128;24.750;2023-07-16T04:13:38;9.32;;;4.80;;
32874;SDS011;40468;42.128;24.750;2023-07-16T04:15:10;9.77;;;4.80;;
32874;SDS011;40468;42.128;24.750;2023-07-16T04:16:40;7.13;;;4.28;;
32874;SDS011;40468;42.128;24.750;2023-07-16T04:18:14;8.82;;;4.85;;
32874;SDS011;40468;42.128;24.750;2023-07-16T04:19:45;18.20;;;4.63;;
32874;SDS011;40468;42.128;24.750;2023-07-16T04:21:16;7.75;;;4.82;;
32874;SDS011;40468;42.128;24.750;2023-07-16T04:22:48;8.95;;;5.35;;
32874;SDS011;40468;42.128;24.750;2023-07-16T04:24:19;6.60;;;4.45;;
32874;SDS011;40468;42.128;24.750;2023-07-16T04:25:51;9.88;;;5.10;;
32874;SDS011;40468;42.128;24.750;2023-07-16T04:27:23;7.35;;;4.28;;
32874;SDS011;40468;42.128;24.750;2023-07-16T04:28:55;10.68;;;4.63;;
32874;SDS011;40468;42.128;24.750;2023-07-16T04:30:26;9.50;;;4.28;;
32874;SDS011;40468;42.128;24.750;2023-07-16T04:31:57;8.38;;;4.28;;
32874;SDS011;40468;42.128;24.750;2023-07-16T04:33:31;11.77;;;4.72;;
32874;SDS011;40468;42.128;24.750;2023-07-16T04:35:01;10.38;;;4.38;;
32874;SDS011;40468;42.128;24.750;2023-07-16T04:36:34;5.53;;;4.05;;
32874;SDS011;40468;42.128;24.750;2023-07-16T04:38:05;5.05;;;4.13;;
32874;SDS011;40468;42.128;24.750;2023-07-16T04:39:38;6.57;;;3.95;;
32874;SDS011;40468;42.128;24.750;2023-07-16T04:41:08;7.43;;;4.53;;
32874;SDS011;40468;42.128;24.750;2023-07-16T04:42:42;7.72;;;4.10;;
32874;SDS011;40468;42.128;24.750;2023-07-16T04:44:13;7.90;;;4.57;;
32874;SDS011;40468;42.128;24.750;2023-07-16T04:45:45;10.77;;;5.00;;
32874;SDS011;40468;42.128;24.750;2023-07-16T04:47:16;6.30;;;4.22;;
32874;SDS011;40468;42.128;24.750;2023-07-16T04:48:50;7.90;;;4.47;;
32874;SDS011;40468;42.128;24.750;2023-07-16T04:50:20;10.70;;;4.50;;
32874;SDS011;40468;42.128;24.750;2023-07-16T04:51:52;8.98;;;4.38;;
32874;SDS011;40468;42.128;24.750;2023-07-16T04:53:23;9.63;;;4.55;;
32874;SDS011;40468;42.128;24.750;2023-07-16T04:54:55;9.77;;;4.80;;
32874;SDS011;40468;42.128;24.750;2023-07-16T04:56:26;9.25;;;4.30;;
32874;SDS011;40468;42.128;24.750;2023-07-16T04:57:58;11.00;;;4.35;;
32874;SDS011;40468;42.128;24.750;2023-07-16T04:59:29;7.18;;;4.35;;
32874;SDS011;40468;42.128;24.750;2023-07-16T05:01:00;8.27;;;4.47;;
32874;SDS011;40468;42.128;24.750;2023-07-16T05:02:33;10.20;;;5.03;;
32874;SDS011;40468;42.128;24.750;2023-07-16T05:04:05;12.45;;;5.25;;
32874;SDS011;40468;42.128;24.750;2023-07-16T05:05:38;8.35;;;4.75;;
32874;SDS011;40468;42.128;24.750;2023-07-16T05:07:09;10.38;;;5.30;;
32874;SDS011;40468;42.128;24.750;2023-07-16T05:08:40;7.47;;;4.55;;
32874;SDS011;40468;42.128;24.750;2023-07-16T05:10:12;6.30;;;4.47;;
32874;SDS011;40468;42.128;24.750;2023-07-16T05:11:43;9.43;;;5.05;;
32874;SDS011;40468;42.128;24.750;2023-07-16T05:13:15;6.88;;;4.93;;
32874;SDS011;40468;42.128;24.750;2023-07-16T05:14:46;9.32;;;4.50;;
32874;SDS011;40468;42.128;24.750;2023-07-16T05:17:49;11.52;;;4.47;;
32874;SDS011;40468;42.128;24.750;2023-07-16T05:19:23;12.38;;;4.70;;
32874;SDS011;40468;42.128;24.750;2023-07-16T05:20:54;7.65;;;4.45;;
32874;SDS011;40468;42.128;24.750;2023-07-16T05:22:25;12.32;;;4.43;;
32874;SDS011;40468;42.128;24.750;2023-07-16T05:23:56;7.20;;;4.50;;
32874;SDS011;40468;42.128;24.750;2023-07-16T05:25:28;9.32;;;4.30;;
32874;SDS011;40468;42.128;24.750;2023-07-16T05:27:00;6.20;;;4.13;;
32874;SDS011;40468;42.128;24.750;2023-07-16T05:28:31;7.18;;;4.70;;
32874;SDS011;40468;42.128;24.750;2023-07-16T05:30:04;7.55;;;4.93;;
32874;SDS011;40468;42.128;24.750;2023-07-16T05:31:35;5.80;;;4.30;;
32874;SDS011;40468;42.128;24.750;2023-07-16T05:33:07;9.20;;;4.75;;
32874;SDS011;40468;42.128;24.750;2023-07-16T05:34:40;10.93;;;4.50;;
32874;SDS011;40468;42.128;24.750;2023-07-16T05:37:42;10.30;;;4.65;;
32874;SDS011;40468;42.128;24.750;2023-07-16T05:39:14;9.95;;;4.68;;
32874;SDS011;40468;42.128;24.750;2023-07-16T05:40:45;8.98;;;4.30;;
32874;SDS011;40468;42.128;24.750;2023-07-16T05:42:17;6.20;;;4.53;;
32874;SDS011;40468;42.128;24.750;2023-07-16T05:43:48;8.88;;;4.75;;
32874;SDS011;40468;42.128;24.750;2023-07-16T05:45:20;5.68;;;3.80;;
32874;SDS011;40468;42.128;24.750;2023-07-16T05:46:51;11.82;;;4.47;;
32874;SDS011;40468;42.128;24.750;2023-07-16T05:48:23;11.45;;;4.30;;
32874;SDS011;40468;42.128;24.750;2023-07-16T05:49:56;7.35;;;4.10;;
32874;SDS011;40468;42.128;24.750;2023-07-16T05:51:27;7.63;;;4.20;;
32874;SDS011;40468;42.128;24.750;2023-07-16T05:52:59;7.68;;;4.82;;
32874;SDS011;40468;42.128;24.750;2023-07-16T05:54:30;5.38;;;3.92;;
32874;SDS011;40468;42.128;24.750;2023-07-16T05:56:02;7.30;;;4.30;;
32874;SDS011;40468;42.128;24.750;2023-07-16T05:57:33;9.32;;;4.03;;
32874;SDS011;40468;42.128;24.750;2023-07-16T05:59:05;8.73;;;4.18;;
32874;SDS011;40468;42.128;24.750;2023-07-16T06:00:35;8.52;;;4.70;;
32874;SDS011;40468;42.128;24.750;2023-07-16T06:02:07;5.60;;;4.18;;
32874;SDS011;40468;42.128;24.750;2023-07-16T06:03:38;6.85;;;4.22;;
32874;SDS011;40468;42.128;24.750;2023-07-16T06:05:11;8.60;;;4.80;;
32874;SDS011;40468;42.128;24.750;2023-07-16T06:06:42;10.73;;;4.33;;
32874;SDS011;40468;42.128;24.750;2023-07-16T06:08:14;9.07;;;4.15;;
32874;SDS011;40468;42.128;24.750;2023-07-16T06:09:45;7.38;;;3.95;;
32874;SDS011;40468;42.128;24.750;2023-07-16T06:11:17;6.75;;;4.10;;
32874;SDS011;40468;42.128;24.750;2023-07-16T06:12:47;8.35;;;4.43;;
32874;SDS011;40468;42.128;24.750;2023-07-16T06:14:19;10.07;;;5.07;;
32874;SDS011;40468;42.128;24.750;2023-07-16T06:15:50;14.32;;;4.38;;
32874;SDS011;40468;42.128;24.750;2023-07-16T06:17:22;5.63;;;3.78;;
32874;SDS011;40468;42.128;24.750;2023-07-16T06:18:53;7.88;;;3.80;;
32874;SDS011;40468;42.128;24.750;2023-07-16T06:20:26;8.02;;;4.50;;
32874;SDS011;40468;42.128;24.750;2023-07-16T06:21:57;6.68;;;4.13;;
32874;SDS011;40468;42.128;24.750;2023-07-16T06:23:29;9.45;;;4.85;;
32874;SDS011;40468;42.128;24.750;2023-07-16T06:24:59;9.30;;;4.55;;
32874;SDS011;40468;42.128;24.750;2023-07-16T06:26:31;9.57;;;4.20;;
32874;SDS011;40468;42.128;24.750;2023-07-16T06:28:03;8.93;;;4.28;;
32874;SDS011;40468;42.128;24.750;2023-07-16T06:29:35;5.50;;;3.97;;
32874;SDS011;40468;42.128;24.750;2023-07-16T06:31:07;6.90;;;4.10;;
32874;SDS011;40468;42.128;24.750;2023-07-16T06:32:37;7.72;;;3.88;;
32874;SDS011;40468;42.128;24.750;2023-07-16T06:34:09;13.00;;;4.38;;
32874;SDS011;40468;42.128;24.750;2023-07-16T06:35:44;10.98;;;4.25;;
32874;SDS011;40468;42.128;24.750;2023-07-16T06:37:17;8.82;;;4.40;;
32874;SDS011;40468;42.128;24.750;2023-07-16T06:38:49;6.93;;;4.32;;
32874;SDS011;40468;42.128;24.750;2023-07-16T06:40:21;8.77;;;4.80;;
32874;SDS011;40468;42.128;24.750;2023-07-16T06:41:51;6.88;;;4.13;;
32874;SDS011;40468;42.128;24.750;2023-07-16T06:43:23;7.05;;;4.30;;
32874;SDS011;40468;42.128;24.750;2023-07-16T06:44:54;7.63;;;4.63;;
32874;SDS011;40468;42.128;24.750;2023-07-16T06:46:26;7.57;;;4.88;;
32874;SDS011;40468;42.128;24.750;2023-07-16T06:47:57;7.78;;;4.40;;
32874;SDS011;40468;42.128;24.750;2023-07-16T06:49:29;9.52;;;4.43;;
32874;SDS011;40468;42.128;24.750;2023-07-16T06:51:01;9.18;;;4.13;;
32874;SDS011;40468;42.128;24.750;2023-07-16T06:52:33;8.88;;;4.43;;
32874;SDS011;40468;42.128;24.750;2023-07-16T06:54:06;15.77;;;4.20;;
32874;SDS011;40468;42.128;24.750;2023-07-16T06:55:37;14.60;;;4.90;;
32874;SDS011;40468;42.128;24.750;2023-07-16T06:57:09;9.73;;;4.40;;
32874;SDS011;40468;42.128;24.750;2023-07-16T06:58:39;10.60;;;4.35;;
32874;SDS011;40468;42.128;24.750;2023-07-16T07:00:11;6.55;;;4.20;;
32874;SDS011;40468;42.128;24.750;2023-07-16T07:01:42;9.20;;;4.28;;
32874;SDS011;40468;42.128;24.750;2023-07-16T07:03:14;10.95;;;3.70;;
32874;SDS011;40468;42.128;24.750;2023-07-16T07:04:45;10.15;;;4.03;;
32874;SDS011;40468;42.128;24.750;2023-07-16T07:06:18;7.88;;;3.83;;
32874;SDS011;40468;42.128;24.750;2023-07-16T07:07:49;9.15;;;3.92;;
32874;SDS011;40468;42.128;24.750;2023-07-16T07:09:21;6.70;;;4.20;;
32874;SDS011;40468;42.128;24.750;2023-07-16T07:10:51;6.38;;;4.53;;
32874;SDS011;40468;42.128;24.750;2023-07-16T07:12:23;7.53;;;4.15;;
32874;SDS011;40468;42.128;24.750;2023-07-16T07:13:55;14.27;;;4.38;;
32874;SDS011;40468;42.128;24.750;2023-07-16T07:15:27;11.05;;;3.90;;
32874;SDS011;40468;42.128;24.750;2023-07-16T07:16:59;8.55;;;3.78;;
32874;SDS011;40468;42.128;24.750;2023-07-16T07:18:30;5.50;;;3.63;;
32874;SDS011;40468;42.128;24.750;2023-07-16T07:20:02;11.73;;;3.65;;
32874;SDS011;40468;42.128;24.750;2023-07-16T07:21:35;7.95;;;3.80;;
32874;SDS011;40468;42.128;24.750;2023-07-16T07:23:07;7.82;;;4.13;;
32874;SDS011;40468;42.128;24.750;2023-07-16T07:24:38;6.97;;;3.72;;
32874;SDS011;40468;42.128;24.750;2023-07-16T07:26:09;6.03;;;3.40;;
32874;SDS011;40468;42.128;24.750;2023-07-16T07:27:40;7.05;;;3.17;;
32874;SDS011;40468;42.128;24.750;2023-07-16T07:29:12;12.82;;;3.45;;
32874;SDS011;40468;42.128;24.750;2023-07-16T07:30:43;7.05;;;3.58;;
32874;SDS011;40468;42.128;24.750;2023-07-16T07:32:15;4.03;;;3.17;;
32874;SDS011;40468;42.128;24.750;2023-07-16T07:33:46;8.30;;;2.83;;
32874;SDS011;40468;42.128;24.750;2023-07-16T07:35:18;4.68;;;3.38;;
32874;SDS011;40468;42.128;24.750;2023-07-16T07:36:50;5.45;;;3.30;;
32874;SDS011;40468;42.128;24.750;2023-07-16T07:39:52;4.70;;;3.13;;
32874;SDS011;40468;42.128;24.750;2023-07-16T07:41:24;5.95;;;3.05;;
32874;SDS011;40468;42.128;24.750;2023-07-16T07:42:55;4.47;;;3.40;;
32874;SDS011;40468;42.128;24.750;2023-07-16T07:44:27;7.03;;;3.20;;
32874;SDS011;40468;42.128;24.750;2023-07-16T07:45:58;6.53;;;3.05;;
32874;SDS011;40468;42.128;24.750;2023-07-16T07:47:30;3.28;;;2.63;;
32874;SDS011;40468;42.128;24.750;2023-07-16T07:49:01;4.47;;;2.92;;
32874;SDS011;40468;42.128;24.750;2023-07-16T07:50:32;5.45;;;3.45;;
32874;SDS011;40468;42.128;24.750;2023-07-16T07:52:05;7.53;;;3.10;;
32874;SDS011;40468;42.128;24.750;2023-07-16T07:53:38;5.10;;;2.90;;
32874;SDS011;40468;42.128;24.750;2023-07-16T07:55:10;5.40;;;3.10;;
32874;SDS011;40468;42.128;24.750;2023-07-16T07:56:41;10.70;;;3.20;;
32874;SDS011;40468;42.128;24.750;2023-07-16T07:58:13;6.18;;;3.40;;
32874;SDS011;40468;42.128;24.750;2023-07-16T07:59:43;7.90;;;3.22;;
32874;SDS011;40468;42.128;24.750;2023-07-16T08:01:15;4.65;;;3.10;;
32874;SDS011;40468;42.128;24.750;2023-07-16T08:02:46;8.85;;;3.90;;
32874;SDS011;40468;42.128;24.750;2023-07-16T08:04:18;10.45;;;3.63;;
32874;SDS011;40468;42.128;24.750;2023-07-16T08:05:50;8.95;;;3.17;;
32874;SDS011;40468;42.128;24.750;2023-07-16T08:07:22;7.55;;;3.72;;
32874;SDS011;40468;42.128;24.750;2023-07-16T08:08:55;6.40;;;3.38;;
32874;SDS011;40468;42.128;24.750;2023-07-16T08:10:26;6.78;;;3.10;;
32874;SDS011;40468;42.128;24.750;2023-07-16T08:11:58;5.45;;;3.10;;
32874;SDS011;40468;42.128;24.750;2023-07-16T08:13:30;6.25;;;3.75;;
32874;SDS011;40468;42.128;24.750;2023-07-16T08:15:01;5.32;;;3.30;;
32874;SDS011;40468;42.128;24.750;2023-07-16T08:16:33;10.00;;;3.70;;
32874;SDS011;40468;42.128;24.750;2023-07-16T08:18:04;6.88;;;3.72;;
32874;SDS011;40468;42.128;24.750;2023-07-16T08:19:37;10.60;;;3.67;;
32874;SDS011;40468;42.128;24.750;2023-07-16T08:21:08;9.32;;;3.72;;
32874;SDS011;40468;42.128;24.750;2023-07-16T08:22:41;8.77;;;3.13;;
32874;SDS011;40468;42.128;24.750;2023-07-16T08:24:12;7.07;;;3.70;;
32874;SDS011;40468;42.128;24.750;2023-07-16T08:25:44;6.35;;;3.90;;
32874;SDS011;40468;42.128;24.750;2023-07-16T08:27:16;7.55;;;3.30;;
32874;SDS011;40468;42.128;24.750;2023-07-16T08:28:49;7.15;;;3.72;;
32874;SDS011;40468;42.128;24.750;2023-07-16T08:30:20;7.53;;;3.22;;
32874;SDS011;40468;42.128;24.750;2023-07-16T08:31:52;6.75;;;3.75;;
32874;SDS011;40468;42.128;24.750;2023-07-16T08:33:24;7.55;;;4.07;;
32874;SDS011;40468;42.128;24.750;2023-07-16T08:34:54;7.47;;;3.60;;
32874;SDS011;40468;42.128;24.750;2023-07-16T08:36:26;10.35;;;3.17;;
32874;SDS011;40468;42.128;24.750;2023-07-16T08:37:58;4.68;;;3.60;;
32874;SDS011;40468;42.128;24.750;2023-07-16T08:39:30;11.93;;;3.97;;
32874;SDS011;40468;42.128;24.750;2023-07-16T08:41:01;5.28;;;3.63;;
32874;SDS011;40468;42.128;24.750;2023-07-16T08:42:33;6.68;;;3.88;;
32874;SDS011;40468;42.128;24.750;2023-07-16T08:44:05;6.43;;;3.88;;
32874;SDS011;40468;42.128;24.750;2023-07-16T08:45:38;5.47;;;3.60;;
32874;SDS011;40468;42.128;24.750;2023-07-16T08:47:12;5.25;;;2.92;;
32874;SDS011;40468;42.128;24.750;2023-07-16T08:48:45;5.13;;;3.08;;
32874;SDS011;40468;42.128;24.750;2023-07-16T08:50:16;7.03;;;3.70;;
32874;SDS011;40468;42.128;24.750;2023-07-16T08:51:48;5.65;;;3.17;;
32874;SDS011;40468;42.128;24.750;2023-07-16T08:53:21;9.05;;;3.60;;
32874;SDS011;40468;42.128;24.750;2023-07-16T08:54:53;5.30;;;3.42;;
32874;SDS011;40468;42.128;24.750;2023-07-16T08:56:23;8.07;;;4.20;;
32874;SDS011;40468;42.128;24.750;2023-07-16T08:57:55;8.73;;;3.60;;
32874;SDS011;40468;42.128;24.750;2023-07-16T08:59:27;4.35;;;3.50;;
32874;SDS011;40468;42.128;24.750;2023-07-16T09:01:00;4.93;;;3.88;;
32874;SDS011;40468;42.128;24.750;2023-07-16T09:02:32;6.53;;;3.53;;
32874;SDS011;40468;42.128;24.750;2023-07-16T09:04:04;6.85;;;3.50;;
32874;SDS011;40468;42.128;24.750;2023-07-16T09:05:36;6.32;;;3.47;;
32874;SDS011;40468;42.128;24.750;2023-07-16T09:07:07;7.47;;;3.60;;
32874;SDS011;40468;42.128;24.750;2023-07-16T09:08:40;8.57;;;3.45;;
32874;SDS011;40468;42.128;24.750;2023-07-16T09:10:12;6.68;;;3.65;;
32874;SDS011;40468;42.128;24.750;2023-07-16T09:11:46;5.95;;;3.17;;
32874;SDS011;40468;42.128;24.750;2023-07-16T09:13:18;6.35;;;3.17;;
32874;SDS011;40468;42.128;24.750;2023-07-16T09:14:49;5.57;;;3.50;;
32874;SDS011;40468;42.128;24.750;2023-07-16T09:16:20;5.85;;;3.42;;